Aeroporto :
LOGIN :

Iscrizione | Disclaimer

   EN    FR    IT 

 










Sommario :    VFR   VFR Marginale   IFR   IFR Intensivo   IFR Molto Intensivo
Visibilità : 
Base nubi : 
>= 8 km
>= 3000ft
5 / 8 km
1000 / 3000 ft
1500m / 5 km
500 / 1000 ft
800 / 1500m
200 / 500 ft
< 800m
< 200 ft
Simboli :   Temporali  Nebbia  Neve Forte  Precipitazioni Forti  Vento > 20 kt
SIGMETs :   Varie  Temporali  Ghiacco  Turbolenza  Onda orograficha  Ceneri Vulcaniche







- Altitudine del aeroporto : 375 ft
- Codice IATA : MST


EHBK - Maastricht Aachen

ULTIMO METAR :
  • 180755Z AUTO 06008KT 9000 NCD M00/M02 Q1028 NOSIG

METARs OBSOLETI :
  • 180725Z AUTO 05008KT 8000 NCD M01/M03 Q1028 NOSIG
  • 180655Z AUTO 06009KT 9000 NCD M01/M03 Q1028 NOSIG
  • 180625Z AUTO 05009KT 9999 NCD M01/M03 Q1028 NOSIG
  • 180555Z AUTO 05007KT 9999 NCD M01/M03 Q1028 NOSIG
  • 180525Z AUTO 06007KT 9999 NCD M01/M03 Q1028 NOSIG

TAF TAF EHBK
Valido dal 18 a 06 ore il 19 a 12 ore UTC


180513Z 1806/1912 08009KT CAVOK
BECMG 1902/1905 4000 BR BKN008
PROB40
TEMPO 1903/1908 2000 BKN004
BECMG 1907/1910 05012KT 9999 NSW BKN015
PROB40
TEMPO 1907/1912 7000 -RADZ BKN012
Nessun NOTAM noto per questo aeroporto.



MetMap, La meteo Aeronautica in un colpo d'occhio ! - Copyright ORBIFLY Dicembre 2007 - Disclaimer

ORBIFLY MET'MAP TEAM :

Programmazione e sviluppo : Alexandra Zaïnal
Concezione e sviluppo : Baudouin d'Aumeries
Co-Programmazione e sviluppo : Marc-Olivier Méhu
Supporto tecnico e logistico : Manuel Goepfert
Aiuto per la traduzione : Arnaldo La Scala

Contatto : metmap@orbifly.com




FONTI E CREDITI :

   NOAA